sensor_id;sensor_type;location;lat;lon;timestamp;P1;durP1;ratioP1;P2;durP2;ratioP2
37284;SDS011;23172;53.550;9.964;2024-03-07T00:03:29;332.58;;;247.90;;
37284;SDS011;23172;53.550;9.964;2024-03-07T00:08:33;404.50;;;306.13;;
37284;SDS011;23172;53.550;9.964;2024-03-07T00:13:34;359.60;;;280.40;;
37284;SDS011;23172;53.550;9.964;2024-03-07T00:18:36;313.80;;;243.52;;
37284;SDS011;23172;53.550;9.964;2024-03-07T00:23:41;315.10;;;251.48;;
37284;SDS011;23172;53.550;9.964;2024-03-07T00:28:43;458.48;;;321.67;;
37284;SDS011;23172;53.550;9.964;2024-03-07T00:33:46;453.60;;;286.50;;
37284;SDS011;23172;53.550;9.964;2024-03-07T00:38:49;347.42;;;153.40;;
37284;SDS011;23172;53.550;9.964;2024-03-07T00:43:51;218.43;;;186.77;;
37284;SDS011;23172;53.550;9.964;2024-03-07T00:48:53;244.80;;;202.98;;
37284;SDS011;23172;53.550;9.964;2024-03-07T00:53:56;206.18;;;130.18;;
37284;SDS011;23172;53.550;9.964;2024-03-07T00:58:58;243.57;;;196.20;;
37284;SDS011;23172;53.550;9.964;2024-03-07T01:04:00;235.80;;;211.32;;
37284;SDS011;23172;53.550;9.964;2024-03-07T01:09:04;238.02;;;200.07;;
37284;SDS011;23172;53.550;9.964;2024-03-07T01:14:13;244.55;;;135.45;;
37284;SDS011;23172;53.550;9.964;2024-03-07T01:19:15;178.93;;;105.78;;
37284;SDS011;23172;53.550;9.964;2024-03-07T01:24:18;144.85;;;115.00;;
37284;SDS011;23172;53.550;9.964;2024-03-07T01:29:20;111.80;;;87.97;;
37284;SDS011;23172;53.550;9.964;2024-03-07T01:34:22;137.23;;;84.03;;
37284;SDS011;23172;53.550;9.964;2024-03-07T01:39:26;158.73;;;130.13;;
37284;SDS011;23172;53.550;9.964;2024-03-07T01:44:28;173.05;;;104.40;;
37284;SDS011;23172;53.550;9.964;2024-03-07T01:49:31;112.30;;;67.32;;
37284;SDS011;23172;53.550;9.964;2024-03-07T01:54:35;323.42;;;142.65;;
37284;SDS011;23172;53.550;9.964;2024-03-07T01:59:37;201.55;;;151.65;;
37284;SDS011;23172;53.550;9.964;2024-03-07T02:04:39;203.18;;;130.55;;
37284;SDS011;23172;53.550;9.964;2024-03-07T02:09:44;162.60;;;123.93;;
37284;SDS011;23172;53.550;9.964;2024-03-07T02:14:45;117.65;;;91.43;;
37284;SDS011;23172;53.550;9.964;2024-03-07T02:19:47;169.55;;;108.63;;
37284;SDS011;23172;53.550;9.964;2024-03-07T02:24:52;249.23;;;186.15;;
37284;SDS011;23172;53.550;9.964;2024-03-07T02:29:54;171.63;;;102.57;;
37284;SDS011;23172;53.550;9.964;2024-03-07T02:34:56;156.68;;;93.97;;
37284;SDS011;23172;53.550;9.964;2024-03-07T02:39:59;162.90;;;107.47;;
37284;SDS011;23172;53.550;9.964;2024-03-07T02:45:02;172.07;;;116.53;;
37284;SDS011;23172;53.550;9.964;2024-03-07T02:50:05;161.32;;;115.55;;
37284;SDS011;23172;53.550;9.964;2024-03-07T02:55:09;182.82;;;124.85;;
37284;SDS011;23172;53.550;9.964;2024-03-07T03:00:11;187.95;;;122.65;;
37284;SDS011;23172;53.550;9.964;2024-03-07T03:05:26;157.48;;;97.65;;
37284;SDS011;23172;53.550;9.964;2024-03-07T03:10:32;192.85;;;120.13;;
37284;SDS011;23172;53.550;9.964;2024-03-07T03:15:34;153.57;;;108.47;;
37284;SDS011;23172;53.550;9.964;2024-03-07T03:20:37;166.50;;;140.00;;
37284;SDS011;23172;53.550;9.964;2024-03-07T03:25:41;148.93;;;94.07;;
37284;SDS011;23172;53.550;9.964;2024-03-07T03:30:43;150.27;;;108.97;;
37284;SDS011;23172;53.550;9.964;2024-03-07T03:35:45;198.25;;;134.93;;
37284;SDS011;23172;53.550;9.964;2024-03-07T03:40:48;347.48;;;152.63;;
37284;SDS011;23172;53.550;9.964;2024-03-07T03:45:50;206.05;;;135.95;;
37284;SDS011;23172;53.550;9.964;2024-03-07T03:50:52;220.70;;;136.48;;
37284;SDS011;23172;53.550;9.964;2024-03-07T03:55:56;262.60;;;154.55;;
37284;SDS011;23172;53.550;9.964;2024-03-07T04:00:59;187.82;;;121.88;;
37284;SDS011;23172;53.550;9.964;2024-03-07T04:06:00;224.15;;;201.27;;
37284;SDS011;23172;53.550;9.964;2024-03-07T04:11:04;172.23;;;136.50;;
37284;SDS011;23172;53.550;9.964;2024-03-07T04:16:09;176.38;;;119.20;;
37284;SDS011;23172;53.550;9.964;2024-03-07T04:21:11;166.13;;;142.73;;
37284;SDS011;23172;53.550;9.964;2024-03-07T04:26:14;154.95;;;118.65;;
37284;SDS011;23172;53.550;9.964;2024-03-07T04:31:16;197.10;;;138.50;;
37284;SDS011;23172;53.550;9.964;2024-03-07T04:36:18;241.32;;;162.68;;
37284;SDS011;23172;53.550;9.964;2024-03-07T04:41:21;174.65;;;120.68;;
37284;SDS011;23172;53.550;9.964;2024-03-07T04:46:23;240.85;;;193.10;;
37284;SDS011;23172;53.550;9.964;2024-03-07T04:51:25;251.18;;;195.52;;
37284;SDS011;23172;53.550;9.964;2024-03-07T04:56:29;268.33;;;179.45;;
37284;SDS011;23172;53.550;9.964;2024-03-07T05:01:31;214.25;;;173.65;;
37284;SDS011;23172;53.550;9.964;2024-03-07T05:06:33;294.30;;;208.70;;
37284;SDS011;23172;53.550;9.964;2024-03-07T05:11:36;282.70;;;217.23;;
37284;SDS011;23172;53.550;9.964;2024-03-07T05:16:38;379.90;;;278.38;;
37284;SDS011;23172;53.550;9.964;2024-03-07T05:21:40;304.42;;;244.00;;
37284;SDS011;23172;53.550;9.964;2024-03-07T05:26:43;425.23;;;334.15;;
37284;SDS011;23172;53.550;9.964;2024-03-07T05:31:45;380.27;;;296.75;;
37284;SDS011;23172;53.550;9.964;2024-03-07T05:36:47;520.17;;;400.58;;
37284;SDS011;23172;53.550;9.964;2024-03-07T05:41:50;586.58;;;446.65;;
37284;SDS011;23172;53.550;9.964;2024-03-07T05:46:52;928.33;;;657.88;;
37284;SDS011;23172;53.550;9.964;2024-03-07T05:51:54;1159.85;;;777.58;;
37284;SDS011;23172;53.550;9.964;2024-03-07T05:56:57;1510.43;;;767.97;;
37284;SDS011;23172;53.550;9.964;2024-03-07T06:02:00;1497.40;;;688.38;;
37284;SDS011;23172;53.550;9.964;2024-03-07T06:07:02;1579.43;;;805.45;;
37284;SDS011;23172;53.550;9.964;2024-03-07T06:12:05;1040.40;;;327.77;;
37284;SDS011;23172;53.550;9.964;2024-03-07T06:17:08;1479.03;;;604.60;;
37284;SDS011;23172;53.550;9.964;2024-03-07T06:22:10;1428.25;;;508.77;;
37284;SDS011;23172;53.550;9.964;2024-03-07T06:27:14;1383.40;;;567.17;;
37284;SDS011;23172;53.550;9.964;2024-03-07T06:32:26;1588.97;;;666.88;;
37284;SDS011;23172;53.550;9.964;2024-03-07T06:37:28;1414.38;;;438.90;;
37284;SDS011;23172;53.550;9.964;2024-03-07T06:42:37;1678.80;;;792.25;;
37284;SDS011;23172;53.550;9.964;2024-03-07T06:47:39;1727.35;;;823.83;;
37284;SDS011;23172;53.550;9.964;2024-03-07T06:52:41;1700.00;;;801.10;;
37284;SDS011;23172;53.550;9.964;2024-03-07T06:57:46;1999.90;;;999.90;;
37284;SDS011;23172;53.550;9.964;2024-03-07T07:02:48;549.92;;;130.88;;
37284;SDS011;23172;53.550;9.964;2024-03-07T07:07:50;1580.93;;;765.50;;
37284;SDS011;23172;53.550;9.964;2024-03-07T07:12:53;1999.90;;;999.90;;
37284;SDS011;23172;53.550;9.964;2024-03-07T07:17:55;1999.90;;;999.90;;
37284;SDS011;23172;53.550;9.964;2024-03-07T07:22:58;1999.90;;;999.90;;
37284;SDS011;23172;53.550;9.964;2024-03-07T07:28:03;1999.90;;;999.90;;
37284;SDS011;23172;53.550;9.964;2024-03-07T07:33:08;1999.90;;;999.90;;
37284;SDS011;23172;53.550;9.964;2024-03-07T07:38:09;1999.90;;;999.90;;
37284;SDS011;23172;53.550;9.964;2024-03-07T07:43:14;1999.90;;;999.90;;
37284;SDS011;23172;53.550;9.964;2024-03-07T07:48:16;1999.90;;;999.90;;
37284;SDS011;23172;53.550;9.964;2024-03-07T07:53:19;1999.90;;;999.90;;
37284;SDS011;23172;53.550;9.964;2024-03-07T07:58:22;1999.90;;;999.90;;
37284;SDS011;23172;53.550;9.964;2024-03-07T08:03:24;1999.90;;;999.90;;
37284;SDS011;23172;53.550;9.964;2024-03-07T08:08:26;1999.90;;;999.90;;
37284;SDS011;23172;53.550;9.964;2024-03-07T08:13:29;1999.90;;;999.90;;
37284;SDS011;23172;53.550;9.964;2024-03-07T08:18:31;1999.90;;;999.90;;
37284;SDS011;23172;53.550;9.964;2024-03-07T08:23:33;1999.90;;;999.90;;
37284;SDS011;23172;53.550;9.964;2024-03-07T08:28:36;1999.90;;;999.90;;
37284;SDS011;23172;53.550;9.964;2024-03-07T08:33:39;1999.90;;;999.90;;
37284;SDS011;23172;53.550;9.964;2024-03-07T08:38:41;1999.90;;;999.90;;
37284;SDS011;23172;53.550;9.964;2024-03-07T08:43:47;1999.90;;;999.90;;
37284;SDS011;23172;53.550;9.964;2024-03-07T08:48:50;1999.90;;;999.90;;
37284;SDS011;23172;53.550;9.964;2024-03-07T08:53:52;1999.90;;;999.90;;
37284;SDS011;23172;53.550;9.964;2024-03-07T08:58:55;1999.90;;;999.90;;
37284;SDS011;23172;53.550;9.964;2024-03-07T09:03:57;1999.90;;;999.90;;
37284;SDS011;23172;53.550;9.964;2024-03-07T09:08:59;1999.90;;;999.90;;
37284;SDS011;23172;53.550;9.964;2024-03-07T09:14:02;1999.90;;;999.90;;
37284;SDS011;23172;53.550;9.964;2024-03-07T09:19:09;1999.90;;;999.90;;
37284;SDS011;23172;53.550;9.964;2024-03-07T09:24:14;1999.90;;;999.90;;
37284;SDS011;23172;53.550;9.964;2024-03-07T09:29:17;1999.90;;;999.90;;
37284;SDS011;23172;53.550;9.964;2024-03-07T09:34:19;1999.90;;;999.90;;
37284;SDS011;23172;53.550;9.964;2024-03-07T09:39:22;1999.90;;;999.90;;
37284;SDS011;23172;53.550;9.964;2024-03-07T09:44:26;1999.90;;;999.90;;
37284;SDS011;23172;53.550;9.964;2024-03-07T09:49:31;1999.90;;;999.90;;
37284;SDS011;23172;53.550;9.964;2024-03-07T09:54:35;1999.90;;;999.90;;
37284;SDS011;23172;53.550;9.964;2024-03-07T09:59:39;1999.90;;;999.90;;
37284;SDS011;23172;53.550;9.964;2024-03-07T10:04:44;1999.90;;;999.90;;
37284;SDS011;23172;53.550;9.964;2024-03-07T10:09:49;1999.90;;;999.90;;
37284;SDS011;23172;53.550;9.964;2024-03-07T10:14:55;1999.90;;;999.90;;
37284;SDS011;23172;53.550;9.964;2024-03-07T10:19:57;1999.90;;;999.90;;
37284;SDS011;23172;53.550;9.964;2024-03-07T10:25:01;1999.90;;;999.90;;
37284;SDS011;23172;53.550;9.964;2024-03-07T10:30:05;1999.90;;;999.90;;
37284;SDS011;23172;53.550;9.964;2024-03-07T10:35:08;1999.90;;;999.90;;
37284;SDS011;23172;53.550;9.964;2024-03-07T10:40:11;1999.90;;;999.90;;
37284;SDS011;23172;53.550;9.964;2024-03-07T10:45:19;1999.90;;;999.90;;
37284;SDS011;23172;53.550;9.964;2024-03-07T10:50:29;1999.90;;;999.90;;
37284;SDS011;23172;53.550;9.964;2024-03-07T10:55:43;1999.90;;;999.90;;
37284;SDS011;23172;53.550;9.964;2024-03-07T11:00:51;1999.90;;;999.90;;
37284;SDS011;23172;53.550;9.964;2024-03-07T11:05:57;1999.90;;;999.90;;
37284;SDS011;23172;53.550;9.964;2024-03-07T11:11:00;1999.90;;;999.90;;
37284;SDS011;23172;53.550;9.964;2024-03-07T11:16:04;1999.90;;;999.90;;
37284;SDS011;23172;53.550;9.964;2024-03-07T11:21:12;1999.90;;;999.90;;
37284;SDS011;23172;53.550;9.964;2024-03-07T11:26:42;1999.90;;;999.90;;
37284;SDS011;23172;53.550;9.964;2024-03-07T11:31:46;1999.90;;;999.90;;
37284;SDS011;23172;53.550;9.964;2024-03-07T11:36:48;1999.90;;;999.90;;
37284;SDS011;23172;53.550;9.964;2024-03-07T11:41:52;1999.90;;;999.90;;
37284;SDS011;23172;53.550;9.964;2024-03-07T11:46:56;1999.90;;;999.90;;
37284;SDS011;23172;53.550;9.964;2024-03-07T11:51:58;1999.90;;;999.90;;
37284;SDS011;23172;53.550;9.964;2024-03-07T11:57:01;1999.90;;;999.90;;
37284;SDS011;23172;53.550;9.964;2024-03-07T12:02:04;1999.90;;;999.90;;
37284;SDS011;23172;53.550;9.964;2024-03-07T12:07:06;1999.90;;;999.90;;
37284;SDS011;23172;53.550;9.964;2024-03-07T12:12:10;1999.90;;;999.90;;
37284;SDS011;23172;53.550;9.964;2024-03-07T12:17:14;1999.90;;;999.90;;
37284;SDS011;23172;53.550;9.964;2024-03-07T12:22:18;1999.90;;;999.90;;
37284;SDS011;23172;53.550;9.964;2024-03-07T12:27:22;1999.90;;;999.90;;
37284;SDS011;23172;53.550;9.964;2024-03-07T12:32:26;1999.90;;;999.90;;
37284;SDS011;23172;53.550;9.964;2024-03-07T12:37:27;1999.90;;;999.90;;
37284;SDS011;23172;53.550;9.964;2024-03-07T12:42:29;1999.90;;;999.90;;
37284;SDS011;23172;53.550;9.964;2024-03-07T12:47:33;1999.90;;;999.90;;
37284;SDS011;23172;53.550;9.964;2024-03-07T12:52:36;1999.90;;;999.90;;
37284;SDS011;23172;53.550;9.964;2024-03-07T12:57:38;1999.90;;;999.90;;
37284;SDS011;23172;53.550;9.964;2024-03-07T13:02:42;1999.90;;;999.90;;
37284;SDS011;23172;53.550;9.964;2024-03-07T13:07:45;1999.90;;;999.90;;
37284;SDS011;23172;53.550;9.964;2024-03-07T13:12:48;1999.90;;;999.90;;
37284;SDS011;23172;53.550;9.964;2024-03-07T13:17:51;1999.90;;;999.90;;
37284;SDS011;23172;53.550;9.964;2024-03-07T13:22:55;1999.90;;;999.90;;
37284;SDS011;23172;53.550;9.964;2024-03-07T13:28:01;1999.90;;;999.90;;
37284;SDS011;23172;53.550;9.964;2024-03-07T13:33:09;1999.90;;;999.90;;
37284;SDS011;23172;53.550;9.964;2024-03-07T13:38:11;1999.90;;;999.90;;
37284;SDS011;23172;53.550;9.964;2024-03-07T13:43:15;1999.90;;;999.90;;
37284;SDS011;23172;53.550;9.964;2024-03-07T13:48:19;1999.90;;;999.90;;
37284;SDS011;23172;53.550;9.964;2024-03-07T13:53:22;1999.90;;;999.90;;
37284;SDS011;23172;53.550;9.964;2024-03-07T13:58:36;1999.90;;;999.90;;
37284;SDS011;23172;53.550;9.964;2024-03-07T14:03:55;1999.90;;;999.90;;
37284;SDS011;23172;53.550;9.964;2024-03-07T14:09:38;1999.90;;;999.90;;
37284;SDS011;23172;53.550;9.964;2024-03-07T14:14:55;1999.90;;;999.90;;
37284;SDS011;23172;53.550;9.964;2024-03-07T14:20:46;1999.90;;;999.90;;
37284;SDS011;23172;53.550;9.964;2024-03-07T14:26:02;1999.90;;;999.90;;
37284;SDS011;23172;53.550;9.964;2024-03-07T14:31:39;1999.90;;;999.90;;
37284;SDS011;23172;53.550;9.964;2024-03-07T14:36:45;1999.90;;;999.90;;
37284;SDS011;23172;53.550;9.964;2024-03-07T14:41:52;1999.90;;;999.90;;
37284;SDS011;23172;53.550;9.964;2024-03-07T14:47:00;1999.90;;;999.90;;
37284;SDS011;23172;53.550;9.964;2024-03-07T14:52:07;1999.90;;;999.90;;
37284;SDS011;23172;53.550;9.964;2024-03-07T14:57:10;1999.90;;;999.90;;
37284;SDS011;23172;53.550;9.964;2024-03-07T15:02:13;1999.90;;;999.90;;
37284;SDS011;23172;53.550;9.964;2024-03-07T15:07:16;1999.90;;;999.90;;
37284;SDS011;23172;53.550;9.964;2024-03-07T15:12:22;1999.90;;;999.90;;
37284;SDS011;23172;53.550;9.964;2024-03-07T15:17:24;1999.90;;;999.90;;
37284;SDS011;23172;53.550;9.964;2024-03-07T15:22:27;1999.90;;;999.90;;
37284;SDS011;23172;53.550;9.964;2024-03-07T15:27:29;1999.90;;;999.90;;
37284;SDS011;23172;53.550;9.964;2024-03-07T15:32:31;1999.90;;;999.90;;
37284;SDS011;23172;53.550;9.964;2024-03-07T15:37:37;1999.90;;;999.90;;
37284;SDS011;23172;53.550;9.964;2024-03-07T15:42:39;1999.90;;;999.90;;
37284;SDS011;23172;53.550;9.964;2024-03-07T15:47:42;1999.90;;;999.90;;
37284;SDS011;23172;53.550;9.964;2024-03-07T15:52:46;1999.90;;;999.90;;
37284;SDS011;23172;53.550;9.964;2024-03-07T15:57:51;1999.90;;;999.90;;
37284;SDS011;23172;53.550;9.964;2024-03-07T16:02:54;1999.90;;;999.90;;
37284;SDS011;23172;53.550;9.964;2024-03-07T16:07:59;1999.90;;;999.90;;
37284;SDS011;23172;53.550;9.964;2024-03-07T16:13:03;1999.90;;;999.90;;
37284;SDS011;23172;53.550;9.964;2024-03-07T16:18:07;1999.90;;;999.90;;
37284;SDS011;23172;53.550;9.964;2024-03-07T16:23:11;1999.90;;;999.90;;
37284;SDS011;23172;53.550;9.964;2024-03-07T16:28:15;1999.90;;;999.90;;
37284;SDS011;23172;53.550;9.964;2024-03-07T16:33:21;1999.90;;;999.90;;
37284;SDS011;23172;53.550;9.964;2024-03-07T16:38:26;1999.90;;;999.90;;
37284;SDS011;23172;53.550;9.964;2024-03-07T16:43:28;1999.90;;;999.90;;
37284;SDS011;23172;53.550;9.964;2024-03-07T16:48:30;1999.90;;;999.90;;
37284;SDS011;23172;53.550;9.964;2024-03-07T16:53:33;1999.90;;;999.90;;
37284;SDS011;23172;53.550;9.964;2024-03-07T16:58:35;1999.90;;;999.90;;
37284;SDS011;23172;53.550;9.964;2024-03-07T17:03:37;1999.90;;;999.90;;
37284;SDS011;23172;53.550;9.964;2024-03-07T17:08:41;1999.90;;;999.90;;
37284;SDS011;23172;53.550;9.964;2024-03-07T17:13:42;1999.90;;;999.90;;
37284;SDS011;23172;53.550;9.964;2024-03-07T17:18:44;1999.90;;;999.90;;
37284;SDS011;23172;53.550;9.964;2024-03-07T17:23:49;1999.90;;;999.90;;
37284;SDS011;23172;53.550;9.964;2024-03-07T17:28:50;1999.90;;;999.90;;
37284;SDS011;23172;53.550;9.964;2024-03-07T17:33:52;1999.90;;;999.90;;
37284;SDS011;23172;53.550;9.964;2024-03-07T17:38:58;1999.90;;;999.90;;
37284;SDS011;23172;53.550;9.964;2024-03-07T17:44:00;1999.90;;;999.90;;
37284;SDS011;23172;53.550;9.964;2024-03-07T17:49:03;1999.90;;;999.90;;
37284;SDS011;23172;53.550;9.964;2024-03-07T17:54:07;1999.90;;;999.90;;
37284;SDS011;23172;53.550;9.964;2024-03-07T17:59:11;1999.90;;;999.90;;
37284;SDS011;23172;53.550;9.964;2024-03-07T18:04:13;1999.90;;;999.90;;
37284;SDS011;23172;53.550;9.964;2024-03-07T18:09:16;1999.90;;;999.90;;
37284;SDS011;23172;53.550;9.964;2024-03-07T18:14:27;1999.90;;;999.90;;
37284;SDS011;23172;53.550;9.964;2024-03-07T18:19:32;1999.90;;;999.90;;
37284;SDS011;23172;53.550;9.964;2024-03-07T18:24:36;1999.90;;;999.90;;
37284;SDS011;23172;53.550;9.964;2024-03-07T18:29:39;1999.90;;;999.90;;
37284;SDS011;23172;53.550;9.964;2024-03-07T18:34:41;1999.90;;;999.90;;
37284;SDS011;23172;53.550;9.964;2024-03-07T18:39:44;1077.13;;;222.45;;
37284;SDS011;23172;53.550;9.964;2024-03-07T18:44:46;1577.35;;;449.10;;
37284;SDS011;23172;53.550;9.964;2024-03-07T18:49:53;1710.63;;;347.50;;
37284;SDS011;23172;53.550;9.964;2024-03-07T18:54:57;1999.90;;;558.38;;
37284;SDS011;23172;53.550;9.964;2024-03-07T19:00:05;1999.90;;;999.90;;
37284;SDS011;23172;53.550;9.964;2024-03-07T19:05:25;1999.90;;;999.90;;
37284;SDS011;23172;53.550;9.964;2024-03-07T19:10:29;1999.90;;;999.90;;
37284;SDS011;23172;53.550;9.964;2024-03-07T19:15:31;1288.00;;;323.02;;
37284;SDS011;23172;53.550;9.964;2024-03-07T19:20:33;1626.32;;;780.90;;
37284;SDS011;23172;53.550;9.964;2024-03-07T19:25:38;1968.47;;;639.30;;
37284;SDS011;23172;53.550;9.964;2024-03-07T19:30:42;1163.07;;;273.27;;
37284;SDS011;23172;53.550;9.964;2024-03-07T19:35:45;1999.90;;;999.90;;
37284;SDS011;23172;53.550;9.964;2024-03-07T19:40:49;1999.90;;;999.90;;
37284;SDS011;23172;53.550;9.964;2024-03-07T19:45:51;1999.90;;;999.90;;
37284;SDS011;23172;53.550;9.964;2024-03-07T19:50:55;1999.90;;;999.90;;
37284;SDS011;23172;53.550;9.964;2024-03-07T19:55:59;1999.90;;;999.90;;
37284;SDS011;23172;53.550;9.964;2024-03-07T20:01:03;1999.90;;;999.90;;
37284;SDS011;23172;53.550;9.964;2024-03-07T20:06:05;1999.90;;;999.90;;
37284;SDS011;23172;53.550;9.964;2024-03-07T20:11:10;1999.90;;;999.90;;
37284;SDS011;23172;53.550;9.964;2024-03-07T20:16:13;1999.90;;;999.90;;
37284;SDS011;23172;53.550;9.964;2024-03-07T20:21:15;1999.90;;;999.90;;
37284;SDS011;23172;53.550;9.964;2024-03-07T20:26:19;1999.90;;;999.90;;
37284;SDS011;23172;53.550;9.964;2024-03-07T20:31:20;1999.90;;;999.90;;
37284;SDS011;23172;53.550;9.964;2024-03-07T20:36:22;1999.90;;;999.90;;
37284;SDS011;23172;53.550;9.964;2024-03-07T20:41:26;1999.90;;;999.90;;
37284;SDS011;23172;53.550;9.964;2024-03-07T20:46:28;1999.90;;;999.90;;
37284;SDS011;23172;53.550;9.964;2024-03-07T20:51:30;1999.90;;;999.90;;
37284;SDS011;23172;53.550;9.964;2024-03-07T20:56:38;1999.90;;;999.90;;
37284;SDS011;23172;53.550;9.964;2024-03-07T21:01:44;1999.90;;;999.90;;
37284;SDS011;23172;53.550;9.964;2024-03-07T21:06:47;1999.90;;;999.90;;
37284;SDS011;23172;53.550;9.964;2024-03-07T21:11:51;1999.90;;;999.90;;
37284;SDS011;23172;53.550;9.964;2024-03-07T21:16:54;1999.90;;;999.90;;
37284;SDS011;23172;53.550;9.964;2024-03-07T21:21:56;1999.90;;;999.90;;
37284;SDS011;23172;53.550;9.964;2024-03-07T21:26:59;1999.90;;;999.90;;
37284;SDS011;23172;53.550;9.964;2024-03-07T21:32:01;1999.90;;;999.90;;
37284;SDS011;23172;53.550;9.964;2024-03-07T21:37:03;1999.90;;;999.90;;
37284;SDS011;23172;53.550;9.964;2024-03-07T21:42:08;1999.90;;;999.90;;
37284;SDS011;23172;53.550;9.964;2024-03-07T21:47:12;1999.90;;;999.90;;
37284;SDS011;23172;53.550;9.964;2024-03-07T21:52:14;1999.90;;;999.90;;
37284;SDS011;23172;53.550;9.964;2024-03-07T21:57:18;1999.90;;;999.90;;
37284;SDS011;23172;53.550;9.964;2024-03-07T22:02:20;1999.90;;;999.90;;
37284;SDS011;23172;53.550;9.964;2024-03-07T22:07:22;1527.53;;;754.83;;
37284;SDS011;23172;53.550;9.964;2024-03-07T22:12:26;1999.90;;;999.90;;
37284;SDS011;23172;53.550;9.964;2024-03-07T22:17:27;1999.90;;;999.90;;
37284;SDS011;23172;53.550;9.964;2024-03-07T22:22:29;1999.90;;;999.90;;
37284;SDS011;23172;53.550;9.964;2024-03-07T22:27:33;1999.90;;;999.90;;
37284;SDS011;23172;53.550;9.964;2024-03-07T22:32:34;1999.90;;;999.90;;
37284;SDS011;23172;53.550;9.964;2024-03-07T22:37:37;1999.90;;;999.90;;
37284;SDS011;23172;53.550;9.964;2024-03-07T22:42:41;1999.90;;;999.90;;
37284;SDS011;23172;53.550;9.964;2024-03-07T22:47:43;1999.90;;;999.90;;
37284;SDS011;23172;53.550;9.964;2024-03-07T22:52:50;1999.90;;;999.90;;
37284;SDS011;23172;53.550;9.964;2024-03-07T22:57:53;1999.90;;;999.90;;
37284;SDS011;23172;53.550;9.964;2024-03-07T23:02:55;1999.90;;;999.90;;
37284;SDS011;23172;53.550;9.964;2024-03-07T23:07:57;1999.90;;;999.90;;
37284;SDS011;23172;53.550;9.964;2024-03-07T23:13:01;1999.90;;;999.90;;
37284;SDS011;23172;53.550;9.964;2024-03-07T23:18:03;1999.90;;;999.90;;
37284;SDS011;23172;53.550;9.964;2024-03-07T23:23:08;1999.90;;;999.90;;
37284;SDS011;23172;53.550;9.964;2024-03-07T23:28:11;1999.90;;;999.90;;
37284;SDS011;23172;53.550;9.964;2024-03-07T23:33:13;1999.90;;;999.90;;
37284;SDS011;23172;53.550;9.964;2024-03-07T23:38:15;1999.90;;;999.90;;
37284;SDS011;23172;53.550;9.964;2024-03-07T23:43:18;1999.90;;;999.90;;
37284;SDS011;23172;53.550;9.964;2024-03-07T23:48:20;1999.90;;;999.90;;
37284;SDS011;23172;53.550;9.964;2024-03-07T23:53:22;1999.90;;;999.90;;
37284;SDS011;23172;53.550;9.964;2024-03-07T23:58:27;1999.90;;;999.90;;
